Time;durP1;ratioP1;P1;durP2;ratioP2;P2;SDS_P1;SDS_P2;PMS_P1;PMS_P2;Temp;Humidity;BMP_temperature;BMP_pressure;BME280_temperature;BME280_humidity;BME280_pressure;Samples;Min_cycle;Max_cycle;Signal;HPM_P1;HPM_P2
2020/12/07 00:00:11;;;;;;;3.50;2.70;;;6.40;99.90;;;;;;5094557;28;20234;-77
2020/12/07 00:02:37;;;;;;;1.70;1.60;;;6.40;99.90;;;;;;5095614;28;20170;-77
2020/12/07 00:05:04;;;;;;;1.83;1.73;;;6.50;99.90;;;;;;5094300;28;20681;-77
2020/12/07 00:07:29;;;;;;;1.57;1.47;;;6.50;99.90;;;;;;5095664;28;20177;-77
2020/12/07 00:09:55;;;;;;;4.43;2.77;;;6.50;99.90;;;;;;5095219;28;20186;-77
2020/12/07 00:12:28;;;;;;;6.30;3.63;;;6.40;99.90;;;;;;5094135;28;20180;-77
2020/12/07 00:14:54;;;;;;;4.07;3.03;;;6.30;99.90;;;;;;5094013;28;20629;-77
2020/12/07 00:17:21;;;;;;;3.20;2.87;;;6.30;99.90;;;;;;5095265;28;20169;-77
2020/12/07 00:19:47;;;;;;;2.17;2.00;;;6.30;99.90;;;;;;5093793;28;20188;-77
2020/12/07 00:22:19;;;;;;;2.20;2.03;;;6.20;99.90;;;;;;5094028;28;20691;-77
2020/12/07 00:24:44;;;;;;;2.30;1.63;;;6.20;99.90;;;;;;5095135;28;20256;-77
2020/12/07 00:27:10;;;;;;;2.43;2.07;;;6.20;99.90;;;;;;5095036;28;20166;-77
2020/12/07 00:29:35;;;;;;;2.83;2.43;;;6.20;99.90;;;;;;5094772;28;20222;-77
2020/12/07 00:32:01;;;;;;;3.47;2.67;;;6.20;99.90;;;;;;5095010;28;20189;-77
2020/12/07 00:34:26;;;;;;;1.93;1.83;;;6.30;99.90;;;;;;5093655;28;20174;-77
2020/12/07 00:36:52;;;;;;;3.37;3.17;;;6.40;99.90;;;;;;5094793;28;20194;-77
2020/12/07 00:39:17;;;;;;;2.57;2.47;;;6.40;99.90;;;;;;5094968;28;20669;-77
2020/12/07 00:41:42;;;;;;;3.60;2.13;;;6.50;99.90;;;;;;5094684;28;20163;-77
2020/12/07 00:44:08;;;;;;;3.37;3.17;;;6.40;99.90;;;;;;5093474;28;20192;-77
2020/12/07 00:46:34;;;;;;;3.13;2.93;;;6.30;99.90;;;;;;5093436;28;20182;-77
2020/12/07 00:49:00;;;;;;;1.43;1.40;;;6.30;99.90;;;;;;5094645;28;20183;-77
2020/12/07 00:51:25;;;;;;;1.17;1.17;;;6.30;99.90;;;;;;5092504;28;20229;-78
2020/12/07 00:53:51;;;;;;;2.67;2.47;;;6.30;99.90;;;;;;5074580;28;20528;-78
2020/12/07 00:56:16;;;;;;;2.57;2.37;;;6.20;99.90;;;;;;5074380;28;20186;-78
2020/12/07 00:58:42;;;;;;;0.90;0.90;;;6.30;99.90;;;;;;5074038;28;20245;-78
2020/12/07 01:01:07;;;;;;;3.30;3.03;;;6.20;99.90;;;;;;5074495;28;20161;-78
2020/12/07 01:03:33;;;;;;;1.80;1.43;;;6.20;99.90;;;;;;5074167;28;20174;-78
2020/12/07 01:05:58;;;;;;;2.97;2.77;;;6.20;99.90;;;;;;5074154;28;20167;-78
2020/12/07 01:08:24;;;;;;;2.13;1.93;;;6.20;99.90;;;;;;5074052;28;20189;-78
2020/12/07 01:10:56;;;;;;;0.83;0.83;;;6.30;99.90;;;;;;5074470;28;20317;-78
2020/12/07 01:13:22;;;;;;;1.23;1.23;;;6.30;99.90;;;;;;5073818;28;20166;-78
2020/12/07 01:15:50;;;;;;;1.93;1.83;;;6.30;99.90;;;;;;5074030;28;20252;-78
2020/12/07 01:18:16;;;;;;;4.43;2.33;;;6.30;99.90;;;;;;5072548;28;20171;-78
2020/12/07 01:20:41;;;;;;;1.60;1.53;;;6.30;99.90;;;;;;5073657;28;20646;-78
2020/12/07 01:23:07;;;;;;;1.47;1.37;;;6.30;99.90;;;;;;5072607;28;20283;-78
2020/12/07 01:25:32;;;;;;;1.53;1.20;;;6.30;99.90;;;;;;5073804;28;20186;-78
2020/12/07 01:27:58;;;;;;;1.83;1.37;;;6.30;99.90;;;;;;5073677;28;20175;-78
2020/12/07 01:30:23;;;;;;;1.03;0.93;;;6.30;99.90;;;;;;5072402;28;20654;-78
2020/12/07 01:32:49;;;;;;;1.03;1.03;;;6.30;99.90;;;;;;5073326;28;20224;-78
2020/12/07 01:35:14;;;;;;;0.93;0.93;;;6.30;99.90;;;;;;5072291;28;20198;-78
2020/12/07 01:37:40;;;;;;;2.63;2.43;;;6.30;99.90;;;;;;5073571;28;20167;-78
2020/12/07 01:40:05;;;;;;;3.00;2.30;;;6.30;99.90;;;;;;5074075;28;20618;-78
2020/12/07 01:42:31;;;;;;;0.47;0.43;;;6.30;99.90;;;;;;5073534;28;20198;-78
2020/12/07 01:44:56;;;;;;;1.13;1.13;;;6.40;99.90;;;;;;5073558;28;20504;-78
2020/12/07 01:47:28;;;;;;;1.37;1.37;;;6.40;99.90;;;;;;5072237;28;20530;-78
2020/12/07 01:49:54;;;;;;;1.37;1.27;;;6.40;99.90;;;;;;5073571;28;20182;-78
2020/12/07 01:52:20;;;;;;;1.53;1.43;;;6.40;99.90;;;;;;5073411;28;20194;-78
2020/12/07 01:54:47;;;;;;;1.07;0.97;;;6.40;99.90;;;;;;5072171;28;20171;-78
2020/12/07 01:57:13;;;;;;;2.27;1.83;;;6.50;99.90;;;;;;5090456;28;20179;-78
2020/12/07 01:59:39;;;;;;;2.53;2.03;;;6.50;99.90;;;;;;5093374;28;20201;-78
2020/12/07 02:02:05;;;;;;;0.93;0.93;;;6.40;99.90;;;;;;5093788;28;20667;-78
2020/12/07 02:04:31;;;;;;;1.30;1.23;;;6.40;99.90;;;;;;5093494;28;20624;-78
2020/12/07 02:06:56;;;;;;;2.07;1.07;;;6.40;99.90;;;;;;5093533;28;20165;-78
2020/12/07 02:09:28;;;;;;;2.17;2.07;;;6.40;99.90;;;;;;5092127;28;20208;-78
2020/12/07 02:11:54;;;;;;;0.97;0.60;;;6.40;99.90;;;;;;5092255;28;20220;-78
2020/12/07 02:14:20;;;;;;;1.53;1.50;;;6.40;99.90;;;;;;5093954;28;20537;-78
2020/12/07 02:16:45;;;;;;;1.53;1.43;;;6.40;99.90;;;;;;5092046;28;20229;-78
2020/12/07 02:19:11;;;;;;;1.60;1.50;;;6.40;99.90;;;;;;5093291;28;20667;-78
2020/12/07 02:21:37;;;;;;;2.07;1.90;;;6.40;99.90;;;;;;5092046;28;20162;-78
2020/12/07 02:24:02;;;;;;;2.97;2.77;;;6.30;99.90;;;;;;5092059;28;20201;-78
2020/12/07 02:26:28;;;;;;;1.97;1.80;;;6.30;99.90;;;;;;5091997;28;20278;-78
2020/12/07 02:28:53;;;;;;;1.87;1.77;;;6.40;99.90;;;;;;5091839;28;20187;-78
2020/12/07 02:31:19;;;;;;;1.30;1.20;;;6.40;99.90;;;;;;5093322;28;20253;-78
2020/12/07 02:33:44;;;;;;;1.97;1.87;;;6.40;99.90;;;;;;5091983;28;20635;-78
2020/12/07 02:36:10;;;;;;;2.03;1.93;;;6.40;99.90;;;;;;5091910;28;20194;-78
2020/12/07 02:38:36;;;;;;;2.20;2.00;;;6.50;99.90;;;;;;5091807;28;20257;-78
2020/12/07 02:41:02;;;;;;;0.30;0.30;;;6.50;99.90;;;;;;5093184;28;20641;-78
2020/12/07 02:43:28;;;;;;;3.63;1.73;;;6.50;99.90;;;;;;5091889;28;20228;-78
2020/12/07 02:45:53;;;;;;;4.53;2.83;;;6.60;99.90;;;;;;5096128;28;20648;-78
2020/12/07 02:48:19;;;;;;;1.30;1.30;;;6.60;99.90;;;;;;5097190;28;20657;-78
2020/12/07 02:50:44;;;;;;;1.77;1.47;;;6.60;99.90;;;;;;5095985;28;20668;-78
2020/12/07 02:53:10;;;;;;;2.37;2.20;;;6.70;99.90;;;;;;5097123;28;20170;-78
2020/12/07 02:55:35;;;;;;;0.10;0.10;;;6.70;99.90;;;;;;5096748;28;20218;-78
2020/12/07 02:58:01;;;;;;;0.73;0.73;;;6.70;99.90;;;;;;5096722;28;20170;-78
2020/12/07 03:00:26;;;;;;;1.10;1.00;;;6.70;99.90;;;;;;5095254;28;20292;-78
2020/12/07 03:02:52;;;;;;;0.27;0.27;;;6.60;99.90;;;;;;5096650;28;20174;-78
2020/12/07 03:05:17;;;;;;;1.07;1.07;;;6.60;99.90;;;;;;5096631;28;20167;-78
2020/12/07 03:07:43;;;;;;;1.23;1.20;;;6.60;99.90;;;;;;5095180;28;20715;-79
2020/12/07 03:10:08;;;;;;;1.67;1.57;;;6.60;99.90;;;;;;5096405;28;20186;-79
2020/12/07 03:12:34;;;;;;;0.63;0.63;;;6.60;99.90;;;;;;5092221;28;20173;-79
2020/12/07 03:14:59;;;;;;;0.73;0.50;;;6.70;99.90;;;;;;5074820;28;20176;-78
2020/12/07 03:17:25;;;;;;;1.30;1.10;;;6.70;99.90;;;;;;5076113;28;20186;-79
2020/12/07 03:19:50;;;;;;;1.43;1.43;;;6.60;99.90;;;;;;5076103;28;20187;-79
2020/12/07 03:22:16;;;;;;;0.53;0.53;;;6.60;99.90;;;;;;5076292;28;20168;-79
2020/12/07 03:24:42;;;;;;;1.13;1.00;;;6.60;99.90;;;;;;5076258;28;20178;-79
2020/12/07 03:27:07;;;;;;;0.50;0.50;;;6.60;99.90;;;;;;5075841;28;20580;-79
2020/12/07 03:29:33;;;;;;;0.97;0.97;;;6.50;99.90;;;;;;5075785;28;20200;-79
2020/12/07 03:31:58;;;;;;;0.63;0.63;;;6.50;99.90;;;;;;5074567;28;20534;-79
2020/12/07 03:34:24;;;;;;;1.47;0.87;;;6.50;99.90;;;;;;5076117;28;20170;-79
2020/12/07 03:36:49;;;;;;;0.77;0.77;;;6.50;99.90;;;;;;5074404;28;20201;-79
2020/12/07 03:39:15;;;;;;;0.77;0.77;;;6.60;99.90;;;;;;5075678;28;20192;-79
2020/12/07 03:41:41;;;;;;;0.43;0.43;;;6.60;99.90;;;;;;5074376;28;20163;-79
2020/12/07 03:44:06;;;;;;;2.33;2.03;;;6.50;99.90;;;;;;5074412;28;20166;-79
2020/12/07 03:46:32;;;;;;;0.73;0.73;;;6.50;99.90;;;;;;5075602;28;20175;-79
2020/12/07 03:48:57;;;;;;;0.37;0.37;;;6.50;99.90;;;;;;5090961;28;20247;-79
2020/12/07 03:51:23;;;;;;;1.07;0.87;;;6.40;99.90;;;;;;5095676;28;20169;-79
2020/12/07 03:53:49;;;;;;;0.63;0.63;;;6.50;99.90;;;;;;5095640;28;20172;-79
2020/12/07 03:56:14;;;;;;;1.23;1.13;;;6.40;99.90;;;;;;5093895;28;20194;-79
2020/12/07 03:58:40;;;;;;;1.13;0.77;;;6.40;99.90;;;;;;5094642;28;20169;-79
2020/12/07 04:01:09;;;;;;;1.07;1.07;;;6.50;99.90;;;;;;5095874;28;20150;-79
2020/12/07 04:03:35;;;;;;;0.73;0.73;;;6.40;99.90;;;;;;5095401;28;20216;-79
2020/12/07 04:06:10;;;;;;;1.47;1.37;;;6.40;99.90;;;;;;5095417;28;20166;-79
2020/12/07 04:08:36;;;;;;;0.37;0.37;;;6.30;99.90;;;;;;5095634;28;20276;-79
2020/12/07 04:11:01;;;;;;;1.43;1.33;;;6.30;99.90;;;;;;5095225;28;20201;-79
2020/12/07 04:13:27;;;;;;;1.50;1.43;;;6.30;99.90;;;;;;5093952;28;20261;-79
2020/12/07 04:15:53;;;;;;;1.57;1.47;;;6.30;99.90;;;;;;5093876;28;20285;-78
2020/12/07 04:18:19;;;;;;;1.03;1.03;;;6.30;99.90;;;;;;5095157;28;20173;-79
2020/12/07 04:20:44;;;;;;;1.47;1.37;;;6.40;99.90;;;;;;5095056;28;20184;-79
2020/12/07 04:23:10;;;;;;;0.63;0.63;;;6.30;99.90;;;;;;5093829;28;20173;-79
2020/12/07 04:25:36;;;;;;;0.60;0.60;;;6.20;99.90;;;;;;5093751;28;20333;-79
2020/12/07 04:28:01;;;;;;;0.93;0.93;;;6.20;99.90;;;;;;5095318;28;20200;-79
2020/12/07 04:30:27;;;;;;;1.37;1.30;;;6.20;99.90;;;;;;5093505;28;20577;-79
2020/12/07 04:32:52;;;;;;;0.67;0.67;;;6.20;99.90;;;;;;5093601;28;20181;-79
2020/12/07 04:35:18;;;;;;;0.67;0.67;;;6.20;99.90;;;;;;5094785;28;20684;-79
2020/12/07 04:37:43;;;;;;;0.83;0.83;;;6.20;99.90;;;;;;5094788;28;20167;-78
2020/12/07 04:40:09;;;;;;;2.00;1.80;;;6.20;99.90;;;;;;5094645;28;20186;-79
2020/12/07 04:42:39;;;;;;;1.00;0.90;;;6.20;99.90;;;;;;5093478;28;20162;-79
2020/12/07 04:45:04;;;;;;;1.83;1.70;;;6.30;99.90;;;;;;5094580;28;20158;-79
2020/12/07 04:47:32;;;;;;;1.27;1.27;;;6.20;99.90;;;;;;5082300;28;20515;-79
2020/12/07 04:50:01;;;;;;;0.60;0.50;;;6.20;99.90;;;;;;5074796;28;20201;-79
2020/12/07 04:52:27;;;;;;;1.47;1.47;;;6.20;99.90;;;;;;5073127;28;20574;-78
2020/12/07 04:54:53;;;;;;;1.30;1.20;;;6.10;99.90;;;;;;5074569;28;20167;-78
2020/12/07 04:57:21;;;;;;;1.43;1.33;;;6.00;99.90;;;;;;5077228;28;20201;-78
2020/12/07 04:59:48;;;;;;;1.67;1.57;;;6.00;99.90;;;;;;5124746;22;20220;-79
2020/12/07 05:02:13;;;;;;;1.13;1.13;;;5.90;99.90;;;;;;5117342;28;20170;-79
2020/12/07 05:04:39;;;;;;;1.33;1.27;;;6.00;99.90;;;;;;5117374;28;20181;-79
2020/12/07 05:07:09;;;;;;;0.60;0.60;;;6.00;99.90;;;;;;5115034;28;20577;-79
2020/12/07 05:09:36;;;;;;;1.70;1.60;;;6.10;99.90;;;;;;5116823;28;20196;-79
2020/12/07 05:12:06;;;;;;;0.77;0.77;;;6.10;99.90;;;;;;5115438;28;20678;-79
2020/12/07 05:14:33;;;;;;;2.53;2.43;;;6.10;99.90;;;;;;5102334;28;20170;-79
2020/12/07 05:16:59;;;;;;;0.70;0.70;;;6.00;99.90;;;;;;5115476;28;20292;-79
2020/12/07 05:19:25;;;;;;;1.27;1.27;;;6.00;99.90;;;;;;5102081;28;20243;-79
2020/12/07 05:21:51;;;;;;;0.80;0.80;;;6.10;99.90;;;;;;5094755;28;20166;-79
2020/12/07 05:24:17;;;;;;;0.40;0.37;;;6.00;99.90;;;;;;5094383;28;20261;-79
2020/12/07 05:26:44;;;;;;;2.43;1.67;;;6.00;99.90;;;;;;5096995;28;20649;-79
2020/12/07 05:29:20;;;;;;;1.03;1.03;;;6.10;99.90;;;;;;5096334;28;20260;-79
2020/12/07 05:31:45;;;;;;;1.23;1.23;;;6.00;99.90;;;;;;5094475;28;20226;-79
2020/12/07 05:34:11;;;;;;;1.13;0.83;;;6.00;99.90;;;;;;5096551;28;20177;-79
2020/12/07 05:36:37;;;;;;;2.07;1.87;;;6.10;99.90;;;;;;5094601;28;20562;-79
2020/12/07 05:39:04;;;;;;;1.83;1.73;;;6.00;99.90;;;;;;5107137;28;20613;-79
2020/12/07 05:41:30;;;;;;;4.07;2.43;;;5.90;99.90;;;;;;5115302;28;20173;-79
2020/12/07 05:43:58;;;;;;;2.17;1.47;;;6.00;99.90;;;;;;5116799;28;20283;-79
2020/12/07 05:46:26;;;;;;;2.90;2.70;;;6.10;99.90;;;;;;5115948;28;20173;-79
2020/12/07 05:48:53;;;;;;;2.67;2.50;;;6.10;99.90;;;;;;5116282;28;20176;-79
2020/12/07 05:51:23;;;;;;;2.87;2.70;;;6.10;99.90;;;;;;5116484;28;20169;-79
2020/12/07 05:53:49;;;;;;;3.57;3.27;;;6.10;99.90;;;;;;5116632;28;20166;-79
2020/12/07 05:56:16;;;;;;;1.43;1.33;;;6.20;99.90;;;;;;5102374;28;20261;-79
2020/12/07 05:58:52;;;;;;;2.00;1.90;;;6.20;99.90;;;;;;5094851;28;20174;-79
2020/12/07 06:01:23;;;;;;;2.00;1.10;;;6.10;99.90;;;;;;5094888;28;20526;-79
2020/12/07 06:03:54;;;;;;;2.20;2.10;;;6.10;99.90;;;;;;5094564;28;20616;-79
2020/12/07 06:06:32;;;;;;;2.63;2.43;;;6.10;99.90;;;;;;5094943;28;20193;-79
2020/12/07 06:09:21;;;;;;;3.63;3.43;;;6.10;99.90;;;;;;5094918;28;20174;-79
2020/12/07 06:11:55;;;;;;;4.30;3.37;;;6.00;99.90;;;;;;5096157;28;20154;-79
2020/12/07 06:14:22;;;;;;;0.80;0.70;;;6.10;99.90;;;;;;5094812;28;20157;-79
2020/12/07 06:16:49;;;;;;;1.47;1.33;;;6.00;99.90;;;;;;5097682;28;20205;-79
2020/12/07 06:19:16;;;;;;;2.10;1.87;;;6.00;99.90;;;;;;5098041;28;20189;-79
2020/12/07 06:21:55;;;;;;;2.53;2.33;;;6.00;99.90;;;;;;5100164;28;20166;-79
2020/12/07 06:24:22;;;;;;;1.90;1.67;;;6.00;99.90;;;;;;5100063;28;20154;-79
2020/12/07 06:27:01;;;;;;;2.80;2.43;;;5.90;99.90;;;;;;5099534;28;20177;-79
2020/12/07 06:29:27;;;;;;;2.70;2.50;;;6.00;99.90;;;;;;5098773;28;20298;-79
2020/12/07 06:31:55;;;;;;;1.50;1.30;;;5.90;99.90;;;;;;5100018;28;20634;-79
2020/12/07 06:34:20;;;;;;;1.20;1.20;;;6.00;99.90;;;;;;5099871;28;20556;-79
2020/12/07 06:36:48;;;;;;;3.10;2.83;;;5.90;99.90;;;;;;5099726;28;20289;-79
2020/12/07 06:39:14;;;;;;;1.03;1.03;;;6.00;99.90;;;;;;5098384;28;20225;-79
2020/12/07 06:41:45;;;;;;;2.87;2.50;;;6.00;99.90;;;;;;5098748;28;20221;-79
2020/12/07 06:44:14;;;;;;;2.67;2.57;;;5.90;99.90;;;;;;5099745;28;20171;-80
2020/12/07 06:46:46;;;;;;;1.53;1.50;;;6.00;99.90;;;;;;5099382;28;20173;-79
2020/12/07 06:49:12;;;;;;;1.67;1.57;;;5.90;99.90;;;;;;5097768;28;20200;-79
2020/12/07 06:51:38;;;;;;;1.30;1.20;;;5.90;99.90;;;;;;5099732;28;20162;-79
2020/12/07 06:54:13;;;;;;;1.53;1.53;;;5.90;99.90;;;;;;5099009;28;20177;-79
2020/12/07 06:56:39;;;;;;;3.13;2.93;;;5.90;99.90;;;;;;5110923;28;20196;-79
2020/12/07 06:59:08;;;;;;;2.70;2.60;;;5.90;99.90;;;;;;5118075;28;20633;-79
2020/12/07 07:01:34;;;;;;;1.77;1.67;;;5.90;99.90;;;;;;5119509;28;20150;-79
2020/12/07 07:03:59;;;;;;;1.90;1.67;;;5.90;99.90;;;;;;5117976;28;20681;-80
2020/12/07 07:06:25;;;;;;;1.70;1.60;;;5.90;99.90;;;;;;5128302;28;20543;-78
2020/12/07 07:08:53;;;;;;;3.33;2.77;;;5.90;99.90;;;;;;5131834;28;20173;-79
2020/12/07 07:11:19;;;;;;;1.83;1.73;;;5.80;99.90;;;;;;5131958;28;20177;-79
2020/12/07 07:13:49;;;;;;;3.97;3.77;;;5.80;99.90;;;;;;5131996;28;20223;-79
2020/12/07 07:16:19;;;;;;;3.20;2.90;;;5.80;99.90;;;;;;5134201;28;20188;-78
2020/12/07 07:18:45;;;;;;;3.87;3.57;;;5.80;99.90;;;;;;5132390;28;20173;-79
2020/12/07 07:21:11;;;;;;;2.50;1.83;;;5.80;99.90;;;;;;5131157;28;20201;-79
2020/12/07 07:23:41;;;;;;;1.33;1.23;;;5.70;99.90;;;;;;5120989;28;20256;-79
2020/12/07 07:26:15;;;;;;;2.37;2.27;;;5.80;99.90;;;;;;5131672;28;20165;-79
2020/12/07 07:28:40;;;;;;;2.47;2.27;;;5.80;99.90;;;;;;5128227;28;20201;-78
2020/12/07 07:31:07;;;;;;;3.00;2.83;;;5.80;99.90;;;;;;5112045;28;20189;-79
2020/12/07 07:33:33;;;;;;;1.97;1.87;;;5.70;99.90;;;;;;5110824;28;20170;-79
2020/12/07 07:35:58;;;;;;;4.23;2.77;;;5.80;99.90;;;;;;5106446;28;20254;-79
2020/12/07 07:38:30;;;;;;;3.40;2.67;;;5.90;99.90;;;;;;5100985;28;20177;-79
2020/12/07 07:40:56;;;;;;;1.53;1.43;;;5.80;99.90;;;;;;5103509;28;20197;-78
2020/12/07 07:43:24;;;;;;;2.37;2.27;;;5.80;99.90;;;;;;5104068;28;20522;-80
2020/12/07 07:45:57;;;;;;;1.97;1.27;;;5.80;99.90;;;;;;5112884;28;20177;-79
2020/12/07 07:48:39;;;;;;;3.03;1.73;;;5.80;99.90;;;;;;5112170;28;20193;-78
2020/12/07 08:15:17;;;;;;;0.97;0.97;;;5.70;99.90;;;;;;5124607;28;20188;-79
2020/12/07 08:15:52;;;;;;;2.27;2.07;;;5.70;99.90;;;;;;5108730;28;20205;-79
2020/12/07 08:18:30;;;;;;;2.53;1.93;;;5.70;99.90;;;;;;5108025;28;20166;-78
2020/12/07 08:21:00;;;;;;;3.13;2.93;;;5.70;99.90;;;;;;5108589;28;20186;-78
2020/12/07 08:23:27;;;;;;;2.77;2.57;;;5.70;99.90;;;;;;5109167;28;20512;-77
2020/12/07 08:25:53;;;;;;;3.63;2.40;;;5.70;99.90;;;;;;5123134;28;20174;-78
2020/12/07 08:28:23;;;;;;;1.73;1.63;;;5.70;99.90;;;;;;5113626;28;20316;-78
2020/12/07 08:31:08;;;;;;;2.73;2.57;;;5.70;99.90;;;;;;5098461;28;20182;-79
2020/12/07 08:33:57;;;;;;;2.23;1.57;;;5.60;99.90;;;;;;5103322;28;20492;-79
2020/12/07 08:36:23;;;;;;;1.10;1.10;;;5.70;99.90;;;;;;5101085;28;20196;-79
2020/12/07 08:38:50;;;;;;;1.20;1.13;;;5.70;99.90;;;;;;5101175;28;20273;-78
2020/12/07 08:41:19;;;;;;;1.43;1.33;;;5.70;99.90;;;;;;5100784;28;20166;-78
2020/12/07 08:43:53;;;;;;;1.20;1.10;;;5.70;99.90;;;;;;5103621;28;20167;-77
2020/12/07 08:46:21;;;;;;;3.63;1.80;;;5.70;99.90;;;;;;5103936;28;20155;-78
2020/12/07 08:48:47;;;;;;;2.20;1.60;;;5.70;99.90;;;;;;5105728;28;20249;-78
2020/12/07 08:51:13;;;;;;;1.73;1.63;;;5.70;99.90;;;;;;5106965;28;20194;-78
2020/12/07 08:53:40;;;;;;;0.90;0.90;;;5.70;99.90;;;;;;5119465;28;20277;-77
2020/12/07 08:56:07;;;;;;;1.47;1.30;;;5.60;99.90;;;;;;5104475;28;20204;-78
2020/12/07 08:58:33;;;;;;;2.73;2.63;;;5.60;99.90;;;;;;5124666;28;20173;-79
2020/12/07 09:01:00;;;;;;;1.53;1.43;;;5.60;99.90;;;;;;5127527;27;20231;-78
2020/12/07 09:03:26;;;;;;;1.63;1.53;;;5.70;99.90;;;;;;5128140;28;20249;-79
2020/12/07 09:05:51;;;;;;;1.80;1.40;;;5.70;99.90;;;;;;5115237;28;20224;-78
2020/12/07 09:08:17;;;;;;;2.27;2.17;;;5.70;99.90;;;;;;5115082;28;20177;-78
2020/12/07 09:10:42;;;;;;;1.53;1.43;;;5.60;99.90;;;;;;5113042;28;20205;-80
2020/12/07 09:13:08;;;;;;;1.37;1.27;;;5.60;99.90;;;;;;5110663;28;20181;-80
2020/12/07 09:15:33;;;;;;;1.83;1.73;;;5.60;99.90;;;;;;5093277;28;20221;-80
2020/12/07 09:17:59;;;;;;;0.70;0.70;;;5.60;99.90;;;;;;5094583;28;20174;-81
2020/12/07 09:20:25;;;;;;;1.33;1.33;;;5.60;99.90;;;;;;5095324;28;20570;-82
2020/12/07 09:22:52;;;;;;;2.60;1.43;;;5.60;99.90;;;;;;5116389;28;20173;-79
2020/12/07 09:25:17;;;;;;;1.67;1.57;;;5.60;99.90;;;;;;5116981;28;20571;-79
2020/12/07 09:27:43;;;;;;;1.37;1.33;;;5.60;99.90;;;;;;5097840;28;20257;-80
2020/12/07 09:30:08;;;;;;;1.10;1.10;;;5.60;99.90;;;;;;5096136;28;20311;-81
2020/12/07 09:32:34;;;;;;;0.77;0.77;;;5.60;99.90;;;;;;5100156;28;20169;-78
2020/12/07 09:35:01;;;;;;;1.23;1.23;;;5.60;99.90;;;;;;5098338;28;20189;-78
2020/12/07 09:37:26;;;;;;;1.87;1.77;;;5.50;99.90;;;;;;5101383;28;20189;-78
2020/12/07 09:39:52;;;;;;;1.90;1.80;;;5.60;99.90;;;;;;5098460;28;20742;-78
2020/12/07 09:42:17;;;;;;;1.17;1.07;;;5.60;99.90;;;;;;5099396;28;20211;-79
2020/12/07 09:44:43;;;;;;;0.80;0.80;;;5.60;99.90;;;;;;5100622;28;20697;-79
2020/12/07 09:47:09;;;;;;;1.70;0.53;;;5.60;99.90;;;;;;5101764;28;20190;-79
2020/12/07 09:49:34;;;;;;;1.13;1.00;;;5.60;99.90;;;;;;5123238;28;20279;-79
2020/12/07 09:52:00;;;;;;;0.73;0.73;;;5.60;99.90;;;;;;5123514;28;20180;-78
2020/12/07 09:54:25;;;;;;;0.00;0.00;;;5.50;99.90;;;;;;5121133;28;20230;-78
2020/12/07 09:56:51;;;;;;;3.10;1.57;;;5.60;99.90;;;;;;5102651;28;20200;-78
2020/12/07 09:59:16;;;;;;;2.10;1.17;;;5.60;99.90;;;;;;5110426;28;20206;-78
2020/12/07 10:01:42;;;;;;;1.30;1.20;;;5.60;99.90;;;;;;5094790;28;20637;-78
2020/12/07 10:04:08;;;;;;;3.03;1.37;;;5.60;99.90;;;;;;5096315;28;20173;-78
2020/12/07 10:06:33;;;;;;;1.27;1.27;;;5.70;99.90;;;;;;5099298;28;20176;-80
2020/12/07 10:08:59;;;;;;;2.40;2.30;;;5.60;99.90;;;;;;5098636;28;20178;-78
2020/12/07 10:11:24;;;;;;;1.87;1.70;;;5.60;99.90;;;;;;5097940;28;20173;-78
2020/12/07 10:13:50;;;;;;;0.40;0.40;;;5.60;99.90;;;;;;5097439;28;20170;-78
2020/12/07 10:16:15;;;;;;;1.57;1.43;;;5.60;99.90;;;;;;5094558;28;20197;-78
2020/12/07 10:18:41;;;;;;;0.97;0.93;;;5.50;99.90;;;;;;5094535;28;20166;-78
2020/12/07 10:21:08;;;;;;;1.17;1.17;;;5.60;99.90;;;;;;5096216;28;20542;-78
2020/12/07 10:23:33;;;;;;;1.03;1.03;;;5.60;99.90;;;;;;5096061;28;20252;-79
2020/12/07 10:25:59;;;;;;;1.13;1.03;;;5.60;99.90;;;;;;5094274;28;20642;-78
2020/12/07 10:28:24;;;;;;;5.77;1.70;;;5.50;99.90;;;;;;5096243;28;20173;-78
2020/12/07 10:30:50;;;;;;;0.83;0.83;;;5.50;99.90;;;;;;5096418;28;20197;-79
2020/12/07 10:33:16;;;;;;;1.47;1.37;;;5.60;99.90;;;;;;5097620;28;20183;-78
2020/12/07 10:35:41;;;;;;;1.33;1.23;;;5.50;99.90;;;;;;5093113;28;20198;-77
2020/12/07 10:38:07;;;;;;;1.03;0.87;;;5.50;99.90;;;;;;5106092;28;20174;-78
2020/12/07 10:40:32;;;;;;;1.80;0.80;;;5.50;99.90;;;;;;5112423;28;20185;-78
2020/12/07 10:42:58;;;;;;;1.03;1.03;;;5.60;99.90;;;;;;5117181;28;20246;-78
2020/12/07 10:45:23;;;;;;;1.40;1.30;;;5.50;99.90;;;;;;5113590;28;20169;-78
2020/12/07 10:47:52;;;;;;;1.30;1.20;;;5.50;99.90;;;;;;5121124;28;20236;-79
2020/12/07 10:50:18;;;;;;;0.47;0.40;;;5.50;99.90;;;;;;5128483;28;20193;-79
2020/12/07 10:52:43;;;;;;;0.93;0.93;;;5.50;99.90;;;;;;5129863;28;20191;-77
2020/12/07 10:55:09;;;;;;;1.53;1.43;;;5.40;99.90;;;;;;5128598;28;20662;-79
2020/12/07 10:57:34;;;;;;;0.60;0.60;;;5.40;99.90;;;;;;5129578;28;20193;-78
2020/12/07 11:00:00;;;;;;;0.53;0.33;;;5.30;99.90;;;;;;5128997;23;20217;-79
2020/12/07 11:02:29;;;;;;;1.40;1.30;;;5.20;99.90;;;;;;5071536;28;20161;-79
2020/12/07 11:04:54;;;;;;;0.77;0.73;;;5.30;99.90;;;;;;5072902;28;20163;-79
2020/12/07 11:07:20;;;;;;;1.23;1.13;;;5.30;99.90;;;;;;5074997;28;20181;-79
2020/12/07 11:09:46;;;;;;;1.57;1.13;;;5.30;99.90;;;;;;5081867;28;20269;-79
2020/12/07 11:12:15;;;;;;;1.33;1.23;;;5.20;99.90;;;;;;5096653;28;20205;-79
2020/12/07 11:14:41;;;;;;;1.27;1.17;;;5.30;99.90;;;;;;5093546;28;20177;-80
2020/12/07 11:17:08;;;;;;;0.60;0.60;;;5.30;99.90;;;;;;5076145;28;20248;-81
2020/12/07 11:19:34;;;;;;;1.87;1.47;;;5.20;99.90;;;;;;5089233;28;20251;-80
2020/12/07 11:21:59;;;;;;;1.67;1.57;;;5.20;99.90;;;;;;5078790;28;20189;-81
2020/12/07 11:24:25;;;;;;;1.90;1.80;;;5.30;99.90;;;;;;5093326;28;20188;-79
2020/12/07 11:26:50;;;;;;;1.97;1.87;;;5.30;99.90;;;;;;5079026;28;20185;-78
2020/12/07 11:29:16;;;;;;;1.37;1.30;;;5.30;99.90;;;;;;5092304;28;20178;-80
2020/12/07 11:31:46;;;;;;;1.30;1.20;;;5.30;99.90;;;;;;5075308;28;20173;-80
2020/12/07 11:34:11;;;;;;;1.07;1.07;;;5.30;99.90;;;;;;5090598;28;20269;-80
2020/12/07 11:36:39;;;;;;;0.20;0.13;;;5.30;99.90;;;;;;5092394;28;20244;-78
2020/12/07 11:44:17;;;;;;;0.63;0.63;;;5.40;99.90;;;;;;5076467;28;20146;-80
2020/12/07 11:46:50;;;;;;;3.50;1.07;;;5.50;99.90;;;;;;5091945;28;20219;-79
2020/12/07 11:49:16;;;;;;;0.63;0.63;;;5.50;99.90;;;;;;5092567;28;20188;-79
2020/12/07 11:51:41;;;;;;;0.80;0.80;;;5.50;99.90;;;;;;5076821;28;20163;-78
2020/12/07 11:54:07;;;;;;;1.37;1.33;;;5.50;99.90;;;;;;5092276;28;20174;-80
2020/12/07 11:56:34;;;;;;;0.83;0.73;;;5.50;99.90;;;;;;5091837;28;20612;-78
2020/12/07 11:59:00;;;;;;;1.77;1.67;;;5.50;99.90;;;;;;5091580;28;20174;-77
2020/12/07 12:01:29;;;;;;;1.50;1.47;;;5.50;99.90;;;;;;5075394;28;20292;-79
2020/12/07 12:03:55;;;;;;;1.23;1.17;;;5.60;99.90;;;;;;5075367;28;20626;-80
2020/12/07 12:06:22;;;;;;;1.30;1.27;;;5.60;99.90;;;;;;5075301;28;20170;-79
2020/12/07 12:08:48;;;;;;;0.70;0.70;;;5.60;99.90;;;;;;5075265;28;20213;-79
2020/12/07 12:11:14;;;;;;;0.83;0.83;;;5.60;99.90;;;;;;5091020;28;20190;-79
2020/12/07 12:13:39;;;;;;;1.20;1.13;;;5.60;99.90;;;;;;5075454;28;20177;-81
2020/12/07 12:16:05;;;;;;;1.67;1.57;;;5.60;99.90;;;;;;5090632;28;20198;-80
2020/12/07 12:18:30;;;;;;;0.30;0.30;;;5.60;99.90;;;;;;5075109;28;20167;-79
2020/12/07 12:20:56;;;;;;;2.13;1.53;;;5.60;99.90;;;;;;5091183;28;20659;-80
2020/12/07 12:23:21;;;;;;;0.60;0.60;;;5.60;99.90;;;;;;5090534;28;20169;-81
2020/12/07 12:25:47;;;;;;;0.73;0.53;;;5.70;99.90;;;;;;5074820;28;20193;-80
2020/12/07 12:28:12;;;;;;;0.33;0.27;;;5.70;99.90;;;;;;5090336;28;20167;-80
2020/12/07 12:30:40;;;;;;;1.13;1.13;;;5.70;99.90;;;;;;5074671;28;20186;-80
2020/12/07 12:33:05;;;;;;;1.80;1.00;;;5.80;99.90;;;;;;5090292;28;20170;-81
2020/12/07 12:35:31;;;;;;;0.43;0.43;;;5.80;99.90;;;;;;5090249;28;20228;-81
2020/12/07 12:37:56;;;;;;;0.70;0.70;;;5.80;99.90;;;;;;5074870;28;20167;-81
2020/12/07 12:40:22;;;;;;;1.90;1.80;;;5.90;99.90;;;;;;5075617;28;20241;-81
2020/12/07 12:42:47;;;;;;;1.90;0.93;;;5.90;99.90;;;;;;5074455;28;20162;-81
2020/12/07 12:45:13;;;;;;;1.60;1.50;;;5.90;99.90;;;;;;5074456;28;20155;-81
2020/12/07 12:47:38;;;;;;;0.47;0.47;;;5.90;99.90;;;;;;5090049;28;20253;-81
2020/12/07 12:50:04;;;;;;;0.63;0.63;;;5.90;99.90;;;;;;5076401;28;20763;-80
2020/12/07 12:52:29;;;;;;;1.10;1.00;;;5.90;99.90;;;;;;5074466;28;20171;-81
2020/12/07 12:54:54;;;;;;;1.00;0.93;;;6.00;99.90;;;;;;5073045;28;20167;-81
2020/12/07 12:57:20;;;;;;;0.50;0.47;;;6.00;99.90;;;;;;5091412;28;20209;-80
2020/12/07 12:59:45;;;;;;;2.47;1.53;;;6.10;99.90;;;;;;5092946;28;20272;-81
2020/12/07 13:02:11;;;;;;;0.47;0.47;;;6.10;99.90;;;;;;5093173;28;20208;-81
2020/12/07 13:04:36;;;;;;;0.80;0.80;;;6.10;99.90;;;;;;5094383;28;20166;-81
2020/12/07 13:07:02;;;;;;;1.50;1.17;;;6.10;99.90;;;;;;5094294;28;20545;-81
2020/12/07 13:09:28;;;;;;;1.37;1.33;;;6.00;99.90;;;;;;5092514;28;20220;-80
2020/12/07 13:11:53;;;;;;;0.40;0.40;;;6.00;99.90;;;;;;5094290;28;20515;-81
2020/12/07 13:14:19;;;;;;;1.10;1.10;;;5.90;99.90;;;;;;5089453;28;20266;-81
2020/12/07 13:16:59;;;;;;;0.67;0.60;;;5.90;99.90;;;;;;5073879;28;20726;-81
2020/12/07 13:19:26;;;;;;;0.73;0.73;;;5.80;99.90;;;;;;5072654;28;20618;-80
2020/12/07 13:21:59;;;;;;;0.57;0.57;;;5.90;99.90;;;;;;5074383;28;20159;-81